COA weather

Columbia Airport
Columbia, California, United States

Public forecast

Using degrees Fahrenheit for public forecast. Weather courtesy of forecast.io.

Current aviation weather report (METAR) for Columbia Airport

Retrieved UTC (0 seconds ago):

Closest aviation forecast (TAF) to Columbia Airport

Closest forecast is Modesto City Co-Harry Sham Field, 35.3 nm (65.3 km) SW. Retrieved 2020/03/31 18:36 UTC (1 hour ago):

TAF KMOD 311732Z 3118/0118 35006KT P6SM OVC090 FM312100 31010KT P6SM FEW050 BKN100 FM010200 32007KT P6SM SCT250 FM011600 31007KT P6SM SCT030